Time;durP1;ratioP1;P1;durP2;ratioP2;P2;SDS_P1;SDS_P2;PMS_P1;PMS_P2;Temp;Humidity;BMP_temperature;BMP_pressure;BME280_temperature;BME280_humidity;BME280_pressure;Samples;Min_cycle;Max_cycle;Signal;HPM_P1;HPM_P2
2022/01/05 00:01:43;;;;;;;4.25;1.40;;;2.20;99.90;;;;;;4737207;30;20301;-90
2022/01/05 00:04:09;;;;;;;5.90;1.50;;;1.90;99.90;;;;;;4757237;30;20131;-90
2022/01/05 00:06:35;;;;;;;6.00;1.70;;;1.40;99.90;;;;;;4722343;30;20540;-90
2022/01/05 00:09:01;;;;;;;1.33;0.90;;;1.80;99.90;;;;;;4752544;30;20518;-90
2022/01/05 00:11:26;;;;;;;2.60;1.20;;;2.40;99.90;;;;;;4737032;30;20592;-90
2022/01/05 00:13:52;;;;;;;9.32;1.38;;;1.80;99.90;;;;;;4752159;30;20074;-89
2022/01/05 00:16:18;;;;;;;2.13;0.97;;;1.30;99.90;;;;;;4766708;30;20048;-90
2022/01/05 00:18:44;;;;;;;4.90;1.17;;;1.40;99.90;;;;;;4737785;30;20519;-90
2022/01/05 00:21:10;;;;;;;5.65;1.20;;;0.70;99.90;;;;;;4737033;30;20044;-89
2022/01/05 00:23:53;;;;;;;2.47;1.15;;;1.30;99.90;;;;;;4752204;30;20111;-90
2022/01/05 00:26:19;;;;;;;1.75;0.88;;;1.30;99.90;;;;;;4750049;30;20063;-90
2022/01/05 00:28:47;;;;;;;0.90;0.90;;;1.30;99.90;;;;;;4751286;30;20047;-90
2022/01/05 00:31:15;;;;;;;3.13;0.90;;;2.10;99.90;;;;;;4751570;30;20048;-90
2022/01/05 00:33:41;;;;;;;3.60;1.83;;;1.40;99.90;;;;;;4737016;30;20136;-90
2022/01/05 00:36:07;;;;;;;1.93;1.07;;;1.10;99.90;;;;;;4737016;30;20521;-90
2022/01/05 00:38:43;;;;;;;9.70;2.17;;;2.50;99.90;;;;;;4736913;30;20044;-90
2022/01/05 00:41:09;;;;;;;2.65;1.10;;;1.60;99.90;;;;;;4751725;30;20044;-90
2022/01/05 00:43:38;;;;;;;2.60;0.83;;;1.60;99.90;;;;;;4751711;30;20133;-90
2022/01/05 00:46:05;;;;;;;1.45;1.10;;;1.60;99.90;;;;;;4767241;30;20120;-90
2022/01/05 00:48:38;;;;;;;9.70;1.65;;;1.70;99.90;;;;;;4751755;30;20113;-91
2022/01/05 00:51:07;;;;;;;8.90;1.48;;;2.10;99.90;;;;;;4737064;30;20056;-90
2022/01/05 00:53:36;;;;;;;4.82;2.05;;;1.70;99.90;;;;;;4751887;30;20054;-90
2022/01/05 00:56:03;;;;;;;4.00;0.87;;;2.90;99.90;;;;;;4737583;30;20044;-90
2022/01/05 00:58:32;;;;;;;3.17;1.90;;;1.70;99.90;;;;;;4751146;30;20050;-91
2022/01/05 01:00:58;;;;;;;1.60;1.23;;;1.90;99.90;;;;;;4751883;30;20054;-89
2022/01/05 01:03:27;;;;;;;4.60;1.75;;;2.50;99.90;;;;;;4721719;30;20048;-90
2022/01/05 01:05:53;;;;;;;2.25;1.58;;;3.00;99.90;;;;;;4735917;30;20492;-90
2022/01/05 01:08:19;;;;;;;4.35;1.30;;;1.80;99.90;;;;;;4751323;30;20518;-90
2022/01/05 01:10:46;;;;;;;3.47;1.20;;;2.70;99.90;;;;;;4737993;30;20044;-90
2022/01/05 01:13:19;;;;;;;4.32;2.50;;;0.80;99.90;;;;;;4740996;30;20062;-90
2022/01/05 01:15:49;;;;;;;2.85;0.95;;;1.70;99.90;;;;;;4759236;30;20047;-90
2022/01/05 01:18:16;;;;;;;2.50;1.77;;;1.00;99.90;;;;;;4758186;30;20044;-88
2022/01/05 01:20:51;;;;;;;3.33;1.05;;;1.60;99.90;;;;;;4784888;29;20051;-89
2022/01/05 01:23:22;;;;;;;1.30;1.20;;;2.10;99.90;;;;;;4771204;30;20503;-89
2022/01/05 01:25:51;;;;;;;7.60;1.38;;;2.90;99.90;;;;;;4757906;30;20048;-90
2022/01/05 01:28:20;;;;;;;4.68;2.30;;;2.00;99.90;;;;;;4752198;30;20083;-89
2022/01/05 01:30:48;;;;;;;3.95;1.40;;;2.70;99.90;;;;;;4787335;29;20039;-90
2022/01/05 01:33:18;;;;;;;1.20;0.65;;;2.10;99.90;;;;;;4760494;30;20112;-90
2022/01/05 01:35:44;;;;;;;5.88;2.03;;;1.50;99.90;;;;;;4771777;30;20507;-90
2022/01/05 01:38:09;;;;;;;5.97;1.13;;;1.30;99.90;;;;;;4771594;30;20046;-90
2022/01/05 01:40:38;;;;;;;2.53;0.83;;;1.40;99.90;;;;;;4764805;30;20166;-90
2022/01/05 01:43:09;;;;;;;7.78;1.17;;;2.30;99.90;;;;;;4772573;30;20055;-90
2022/01/05 01:45:34;;;;;;;2.05;0.95;;;1.30;99.90;;;;;;4772234;30;20081;-90
2022/01/05 01:48:00;;;;;;;2.13;0.70;;;2.30;99.90;;;;;;4757311;30;20075;-90
2022/01/05 01:50:26;;;;;;;1.47;1.10;;;2.20;99.90;;;;;;4757576;30;20047;-90
2022/01/05 01:52:52;;;;;;;3.13;1.00;;;2.60;99.90;;;;;;4757780;30;20054;-90
2022/01/05 01:55:21;;;;;;;2.88;1.70;;;1.30;99.90;;;;;;4741290;30;20044;-90
2022/01/05 01:57:47;;;;;;;1.98;1.27;;;0.70;99.90;;;;;;4757460;30;20051;-90
2022/01/05 02:00:13;;;;;;;1.70;1.60;;;2.50;99.90;;;;;;4748817;30;20196;-90
2022/01/05 02:02:42;;;;;;;5.07;1.17;;;1.20;99.90;;;;;;4771867;30;20055;-90
2022/01/05 02:05:08;;;;;;;2.25;1.25;;;1.40;99.90;;;;;;4772575;30;20100;-90
2022/01/05 02:07:34;;;;;;;1.75;0.90;;;1.30;99.90;;;;;;4770834;30;20052;-90
2022/01/05 02:10:01;;;;;;;5.78;1.30;;;0.40;99.90;;;;;;4764149;30;20054;-90
2022/01/05 02:12:29;;;;;;;;;;;2.00;99.90;;;;;;4771893;30;20070;-90
2022/01/05 02:14:57;;;;;;;1.15;1.05;;;2.00;99.90;;;;;;4772861;30;20326;-90
2022/01/05 02:17:31;;;;;;;30.58;2.30;;;1.50;99.90;;;;;;4787269;30;20046;-88
2022/01/05 02:19:57;;;;;;;10.57;1.60;;;2.10;99.90;;;;;;4771447;30;20055;-89
2022/01/05 02:22:23;;;;;;;2.37;1.37;;;1.50;99.90;;;;;;4756076;30;20058;-90
2022/01/05 02:24:51;;;;;;;1.83;1.73;;;1.40;99.90;;;;;;4772036;30;20095;-90
2022/01/05 02:27:17;;;;;;;3.97;1.20;;;2.10;99.90;;;;;;4754885;30;20499;-90
2022/01/05 02:29:45;;;;;;;5.03;1.57;;;1.50;99.90;;;;;;4765049;30;20043;-90
2022/01/05 02:32:11;;;;;;;5.20;1.67;;;2.70;99.90;;;;;;4757928;30;20067;-90
2022/01/05 02:34:37;;;;;;;2.73;1.40;;;2.10;99.90;;;;;;4756651;30;20047;-90
2022/01/05 02:37:03;;;;;;;2.80;1.17;;;1.40;99.90;;;;;;4757163;30;20111;-90
2022/01/05 02:39:28;;;;;;;3.03;1.20;;;1.40;99.90;;;;;;4755521;30;20047;-89
2022/01/05 02:41:54;;;;;;;3.10;2.15;;;2.60;99.90;;;;;;4771895;30;20048;-90
2022/01/05 02:44:20;;;;;;;1.17;1.00;;;2.40;99.90;;;;;;4757082;30;20134;-89
2022/01/05 02:46:46;;;;;;;6.65;1.40;;;1.20;99.90;;;;;;4771155;30;20047;-89
2022/01/05 02:49:12;;;;;;;3.90;1.40;;;2.40;99.90;;;;;;4756412;30;20131;-90
2022/01/05 02:51:40;;;;;;;4.60;1.17;;;1.30;99.90;;;;;;4768686;30;20051;-89
2022/01/05 02:54:06;;;;;;;5.55;1.15;;;2.70;99.90;;;;;;4756656;30;20043;-90
2022/01/05 02:56:34;;;;;;;5.20;1.30;;;1.40;99.90;;;;;;4756649;30;20128;-90
2022/01/05 02:59:03;;;;;;;6.25;1.30;;;1.40;99.90;;;;;;4771423;30;20082;-90
2022/01/05 03:01:29;;;;;;;5.38;1.30;;;2.70;99.90;;;;;;4753975;30;20518;-89
2022/01/05 03:03:56;;;;;;;6.47;2.53;;;1.40;99.90;;;;;;4754724;30;20051;-90
2022/01/05 03:06:22;;;;;;;2.72;1.63;;;1.40;99.90;;;;;;4772010;30;20495;-91
2022/01/05 03:08:50;;;;;;;7.77;1.47;;;1.40;99.90;;;;;;4740227;30;20055;-91
2022/01/05 03:11:16;;;;;;;11.98;1.77;;;1.40;99.90;;;;;;4756050;30;20063;-91
2022/01/05 03:13:43;;;;;;;10.87;1.80;;;2.60;99.90;;;;;;4768370;30;20051;-90
2022/01/05 03:16:09;;;;;;;2.20;1.80;;;2.80;99.90;;;;;;4771936;30;20132;-90
2022/01/05 03:18:34;;;;;;;5.93;1.37;;;2.00;99.90;;;;;;4745748;30;20047;-90
2022/01/05 03:21:16;;;;;;;3.08;1.88;;;2.70;99.90;;;;;;4767934;30;20136;-91
2022/01/05 03:23:46;;;;;;;2.63;1.20;;;1.40;99.90;;;;;;4770510;30;20047;-90
2022/01/05 03:26:12;;;;;;;10.07;2.25;;;1.60;99.90;;;;;;4755430;30;20047;-90
2022/01/05 03:28:37;;;;;;;6.32;1.67;;;2.20;99.90;;;;;;4760588;30;20040;-89
2022/01/05 03:31:03;;;;;;;2.77;2.33;;;1.80;99.90;;;;;;4741483;30;20062;-90
2022/01/05 03:33:31;;;;;;;6.00;1.33;;;1.90;99.90;;;;;;4741134;30;20082;-89
2022/01/05 03:35:57;;;;;;;2.75;1.67;;;2.60;99.90;;;;;;4769722;30;20055;-90
2022/01/05 03:38:24;;;;;;;2.33;1.67;;;1.70;99.90;;;;;;4755428;30;20047;-90
2022/01/05 03:40:52;;;;;;;4.10;1.92;;;1.70;99.90;;;;;;4756019;30;20173;-90
2022/01/05 03:43:18;;;;;;;3.78;2.47;;;2.80;99.90;;;;;;4770692;29;20100;-90
2022/01/05 03:45:44;;;;;;;1.37;1.27;;;2.50;99.90;;;;;;4770240;30;20047;-90
2022/01/05 03:48:18;;;;;;;2.80;2.08;;;2.10;99.90;;;;;;4745532;30;20483;-90
2022/01/05 03:50:44;;;;;;;19.95;3.83;;;1.90;99.90;;;;;;4769427;30;20050;-89
2022/01/05 03:53:11;;;;;;;13.20;2.63;;;1.90;99.90;;;;;;4756032;30;20104;-89
2022/01/05 03:55:44;;;;;;;3.63;1.55;;;2.80;99.90;;;;;;4742706;30;20051;-89
2022/01/05 03:58:10;;;;;;;12.07;2.10;;;2.00;99.90;;;;;;4770531;30;20035;-90
2022/01/05 04:00:42;;;;;;;2.25;1.45;;;2.00;99.90;;;;;;4768129;30;20055;-90
2022/01/05 04:03:08;;;;;;;7.93;1.65;;;2.00;99.90;;;;;;4771301;30;20079;-89
2022/01/05 04:05:34;;;;;;;15.63;3.03;;;2.00;99.90;;;;;;4755527;30;20093;-90
2022/01/05 04:08:00;;;;;;;2.78;1.83;;;2.00;99.90;;;;;;4784737;29;20131;-90
2022/01/05 04:10:26;;;;;;;8.07;2.03;;;2.00;99.90;;;;;;4755245;30;20051;-90
2022/01/05 04:13:02;;;;;;;;;;;;;;;;;;;;;
2022/01/05 04:15:28;;;;;;;9.65;1.67;;;2.00;99.90;;;;;;4784420;29;20055;-90
2022/01/05 04:17:54;;;;;;;9.05;2.42;;;3.30;99.90;;;;;;4754767;30;20047;-90
2022/01/05 04:20:22;;;;;;;7.23;2.07;;;2.10;99.90;;;;;;4753636;30;20049;-89
2022/01/05 04:22:51;;;;;;;3.67;1.45;;;2.00;99.90;;;;;;4751930;30;20089;-90
2022/01/05 04:25:17;;;;;;;2.25;1.23;;;3.00;99.90;;;;;;4763819;30;20047;-90
2022/01/05 04:27:43;;;;;;;5.30;2.27;;;2.10;99.90;;;;;;4769582;30;20494;-89
2022/01/05 04:30:10;;;;;;;5.13;1.70;;;3.10;99.90;;;;;;4741214;30;20051;-90
2022/01/05 04:32:39;;;;;;;5.53;1.92;;;2.10;99.90;;;;;;4756149;30;20411;-90
2022/01/05 04:35:06;;;;;;;7.20;1.67;;;2.10;99.90;;;;;;4754702;30;20137;-89
2022/01/05 04:37:32;;;;;;;7.10;2.10;;;2.20;99.90;;;;;;4769795;30;20113;-90
2022/01/05 04:40:00;;;;;;;4.60;2.13;;;3.30;99.90;;;;;;4767501;30;20051;-90
2022/01/05 04:42:26;;;;;;;3.88;1.25;;;2.30;99.90;;;;;;4754630;30;20584;-90
2022/01/05 04:44:55;;;;;;;9.07;2.45;;;2.40;99.90;;;;;;4784308;30;20047;-89
2022/01/05 04:47:21;;;;;;;5.25;1.52;;;2.40;99.90;;;;;;4768783;30;20437;-89
2022/01/05 04:49:49;;;;;;;3.05;1.95;;;2.40;99.90;;;;;;4749430;30;20047;-89
2022/01/05 04:52:15;;;;;;;4.47;1.38;;;1.50;99.90;;;;;;4747975;30;20085;-89
2022/01/05 04:54:41;;;;;;;9.07;2.20;;;2.50;99.90;;;;;;4754787;30;20047;-89
2022/01/05 04:57:10;;;;;;;11.43;2.13;;;2.70;99.90;;;;;;4754344;30;20040;-90
2022/01/05 04:59:37;;;;;;;3.83;1.80;;;2.40;99.90;;;;;;4762859;30;20051;-90
2022/01/05 05:02:04;;;;;;;5.40;1.77;;;2.40;99.90;;;;;;4754413;30;20404;-90
2022/01/05 05:04:30;;;;;;;3.28;1.33;;;2.40;99.90;;;;;;4784725;29;20065;-90
2022/01/05 05:06:55;;;;;;;7.35;1.90;;;2.50;99.90;;;;;;4739940;30;20112;-90
2022/01/05 05:09:21;;;;;;;5.07;1.75;;;3.60;99.90;;;;;;4769984;30;20054;-89
2022/01/05 05:11:47;;;;;;;13.55;1.98;;;2.60;99.90;;;;;;4731059;30;20162;-89
2022/01/05 05:14:15;;;;;;;5.97;1.77;;;3.00;99.90;;;;;;4747380;30;20054;-90
2022/01/05 05:16:44;;;;;;;4.28;1.88;;;3.80;99.90;;;;;;4769086;30;20047;-89
2022/01/05 05:19:10;;;;;;;4.97;2.03;;;2.70;99.90;;;;;;4792732;29;20114;-91
2022/01/05 05:21:36;;;;;;;8.80;2.13;;;3.80;99.90;;;;;;4769499;30;20167;-90
2022/01/05 05:24:02;;;;;;;7.55;1.58;;;3.50;99.90;;;;;;4767640;30;20782;-90
2022/01/05 05:26:27;;;;;;;6.22;1.38;;;2.70;99.90;;;;;;4752735;30;20135;-89
2022/01/05 05:28:53;;;;;;;9.30;1.40;;;2.70;99.90;;;;;;4759831;30;20043;-89
2022/01/05 05:31:24;;;;;;;5.35;1.83;;;2.80;99.90;;;;;;4737259;30;20446;-90
2022/01/05 05:33:50;;;;;;;7.95;2.00;;;2.80;99.90;;;;;;4767734;30;20059;-90
2022/01/05 05:36:21;;;;;;;3.83;1.43;;;2.80;99.90;;;;;;4731670;30;20119;-90
2022/01/05 05:38:47;;;;;;;10.10;2.75;;;4.10;99.90;;;;;;4752357;30;20055;-90
2022/01/05 05:41:13;;;;;;;3.03;1.47;;;3.80;99.90;;;;;;4752867;30;20052;-90
2022/01/05 05:43:39;;;;;;;7.17;1.60;;;2.70;99.90;;;;;;4784636;29;20036;-90
2022/01/05 05:46:04;;;;;;;11.17;2.63;;;4.10;99.90;;;;;;4753971;30;20138;-89
2022/01/05 05:48:30;;;;;;;5.38;1.73;;;3.00;99.90;;;;;;4754972;29;20710;-89
2022/01/05 05:51:00;;;;;;;5.83;1.90;;;3.00;99.90;;;;;;4768508;30;20039;-89
2022/01/05 05:53:28;;;;;;;12.60;1.75;;;2.90;99.90;;;;;;4754123;30;20052;-90
2022/01/05 05:55:54;;;;;;;11.80;2.07;;;3.00;99.90;;;;;;4754266;30;20043;-88
2022/01/05 05:58:20;;;;;;;6.30;2.50;;;3.10;99.90;;;;;;4783415;30;20158;-90
2022/01/05 06:00:48;;;;;;;16.17;2.78;;;4.40;99.90;;;;;;4753973;30;20146;-90
2022/01/05 06:03:14;;;;;;;5.72;1.83;;;3.40;99.90;;;;;;4770465;30;20051;-89
2022/01/05 06:05:40;;;;;;;8.55;2.35;;;4.30;99.90;;;;;;4741324;30;20130;-89
2022/01/05 06:08:06;;;;;;;4.10;1.52;;;4.00;99.90;;;;;;4756952;30;20127;-89
2022/01/05 06:10:32;;;;;;;2.60;2.00;;;3.30;99.90;;;;;;4756954;30;20044;-89
2022/01/05 06:12:58;;;;;;;7.57;2.13;;;3.20;99.90;;;;;;4757026;30;20100;-89
2022/01/05 06:15:24;;;;;;;4.47;2.75;;;3.70;99.90;;;;;;4758314;30;20047;-89
2022/01/05 06:17:52;;;;;;;10.93;2.00;;;3.20;99.90;;;;;;4757588;30;20051;-89
2022/01/05 06:20:18;;;;;;;9.32;2.78;;;3.20;99.90;;;;;;4745648;30;20047;-90
2022/01/05 06:22:44;;;;;;;8.68;1.95;;;4.10;99.90;;;;;;4772640;30;20047;-89
2022/01/05 06:25:11;;;;;;;6.40;1.47;;;2.70;99.90;;;;;;4771679;30;20043;-88
2022/01/05 06:27:38;;;;;;;8.18;1.88;;;3.20;99.90;;;;;;4748425;30;20527;-89
2022/01/05 06:30:06;;;;;;;4.05;2.03;;;3.30;99.90;;;;;;4756298;30;20093;-89
2022/01/05 06:32:34;;;;;;;9.60;1.98;;;3.10;99.90;;;;;;4772796;30;20047;-89
2022/01/05 06:35:05;;;;;;;4.68;2.20;;;3.10;99.90;;;;;;4771613;30;20074;-88
2022/01/05 06:37:34;;;;;;;8.57;2.55;;;2.90;99.90;;;;;;4755140;30;20483;-88
2022/01/05 06:40:00;;;;;;;1.95;1.73;;;2.20;99.90;;;;;;4756241;30;20047;-89
2022/01/05 06:42:28;;;;;;;7.15;1.40;;;4.30;99.90;;;;;;4786956;29;20054;-88
2022/01/05 06:44:54;;;;;;;3.33;1.80;;;3.70;99.90;;;;;;4741212;30;20055;-89
2022/01/05 06:47:20;;;;;;;2.40;1.70;;;4.30;99.90;;;;;;4743729;30;20530;-88
2022/01/05 06:49:47;;;;;;;6.07;1.10;;;4.10;99.90;;;;;;4746845;30;20051;-88
2022/01/05 06:52:15;;;;;;;6.47;1.20;;;4.20;99.90;;;;;;4772503;30;20059;-86
2022/01/05 06:55:00;;;;;;;;;;;;;;;;;;;;;
2022/01/05 06:57:51;;;;;;;4.15;2.95;;;3.20;99.90;;;;;;4760675;30;20059;-95
2022/01/05 07:00:35;;;;;;;7.13;1.58;;;3.20;99.90;;;;;;4773790;30;20051;-93
2022/01/05 07:03:04;;;;;;;12.07;1.67;;;3.20;99.90;;;;;;4773323;30;20043;-95
2022/01/05 07:05:30;;;;;;;5.32;1.65;;;4.40;99.90;;;;;;4784541;30;20070;-91
2022/01/05 07:07:56;;;;;;;4.73;2.10;;;3.20;99.90;;;;;;4757027;30;20499;-86
2022/01/05 07:10:22;;;;;;;7.07;1.60;;;4.60;99.90;;;;;;4754968;29;20050;-89
2022/01/05 07:12:48;;;;;;;3.85;1.52;;;3.30;99.90;;;;;;4771571;30;20059;-91
2022/01/05 07:15:15;;;;;;;2.47;1.10;;;4.20;99.90;;;;;;4756409;30;20077;-87
2022/01/05 07:17:41;;;;;;;2.03;1.30;;;4.40;99.90;;;;;;4757067;30;20509;-87
2022/01/05 07:20:09;;;;;;;3.30;1.42;;;3.40;99.90;;;;;;4755625;30;20134;-88
2022/01/05 07:22:35;;;;;;;4.60;1.25;;;3.30;99.90;;;;;;4770947;30;20062;-87
2022/01/05 07:25:04;;;;;;;6.97;1.65;;;4.20;99.90;;;;;;4780131;30;20090;-88
2022/01/05 07:27:30;;;;;;;2.35;1.05;;;3.30;99.90;;;;;;4753936;30;20055;-88
2022/01/05 07:29:56;;;;;;;3.30;0.90;;;3.70;99.90;;;;;;4786793;29;20055;-86
2022/01/05 07:32:21;;;;;;;2.10;1.80;;;4.30;99.90;;;;;;4754743;30;20054;-86
2022/01/05 07:34:47;;;;;;;2.90;0.70;;;3.30;99.90;;;;;;4769993;30;20051;-87
2022/01/05 07:37:16;;;;;;;10.17;1.10;;;4.40;99.90;;;;;;4754688;30;20078;-89
2022/01/05 07:39:42;;;;;;;1.50;0.98;;;3.40;99.90;;;;;;4771108;30;20043;-89
2022/01/05 07:42:10;;;;;;;1.27;0.77;;;3.30;99.90;;;;;;4756035;30;20047;-88
2022/01/05 07:44:37;;;;;;;8.13;1.13;;;4.10;99.90;;;;;;4771092;30;20082;-88
2022/01/05 07:47:03;;;;;;;9.70;1.85;;;3.30;99.90;;;;;;4755940;30;20047;-88
2022/01/05 07:49:31;;;;;;;2.00;1.33;;;3.30;99.90;;;;;;4755545;30;20051;-87
2022/01/05 07:51:57;;;;;;;7.03;1.60;;;3.30;99.90;;;;;;4755410;30;20074;-88
2022/01/05 07:54:22;;;;;;;5.67;2.10;;;4.50;99.90;;;;;;4756018;30;20047;-87
2022/01/05 07:56:50;;;;;;;2.20;1.13;;;3.30;99.90;;;;;;4765844;30;20047;-89
2022/01/05 07:59:16;;;;;;;3.95;1.10;;;2.40;99.90;;;;;;4755733;30;20119;-89
2022/01/05 08:01:42;;;;;;;3.20;0.63;;;3.30;99.90;;;;;;4770042;30;20559;-86
2022/01/05 08:04:10;;;;;;;2.60;1.08;;;4.40;99.90;;;;;;4771095;30;20047;-89
2022/01/05 08:06:39;;;;;;;5.57;1.15;;;3.40;99.90;;;;;;4756727;30;20054;-88
2022/01/05 08:09:07;;;;;;;1.07;0.93;;;4.50;99.90;;;;;;4756273;30;20051;-89
2022/01/05 08:11:33;;;;;;;3.30;1.30;;;3.50;99.90;;;;;;4754304;30;20059;-84
2022/01/05 08:14:09;;;;;;;4.80;1.10;;;4.40;99.90;;;;;;4771036;30;20066;-87
2022/01/05 08:16:36;;;;;;;1.48;1.13;;;4.00;99.90;;;;;;4760567;30;20132;-85
2022/01/05 08:19:11;;;;;;;2.40;1.00;;;3.80;99.90;;;;;;4785855;29;20051;-86
2022/01/05 08:21:42;;;;;;;3.80;0.75;;;3.80;99.90;;;;;;4770896;30;20130;-89
2022/01/05 08:24:16;;;;;;;1.55;0.80;;;3.80;99.90;;;;;;4739196;30;20044;-90
2022/01/05 08:26:45;;;;;;;6.43;1.20;;;3.90;99.90;;;;;;4756486;30;20051;-87
2022/01/05 08:29:13;;;;;;;4.10;1.25;;;4.10;99.90;;;;;;4756813;30;20054;-91
2022/01/05 08:31:42;;;;;;;5.72;1.35;;;4.00;99.90;;;;;;4769899;30;20130;-90
2022/01/05 08:34:11;;;;;;;2.38;1.15;;;4.20;99.90;;;;;;4748007;30;20055;-91
2022/01/05 08:36:48;;;;;;;3.03;1.08;;;4.10;99.90;;;;;;4757370;30;20403;-93
2022/01/05 08:39:17;;;;;;;;;;;4.20;99.90;;;;;;4757277;30;20047;-89
2022/01/05 08:41:46;;;;;;;3.05;1.92;;;4.20;99.90;;;;;;4756896;30;19925;-91
2022/01/05 08:44:23;;;;;;;3.55;1.38;;;4.20;99.90;;;;;;4757329;30;20047;-89
2022/01/05 08:46:54;;;;;;;10.98;1.75;;;4.00;99.90;;;;;;4757473;30;20091;-89
2022/01/05 08:49:22;;;;;;;4.72;1.70;;;4.20;99.90;;;;;;4757411;30;20518;-95
2022/01/05 08:51:58;;;;;;;4.43;2.03;;;4.20;99.90;;;;;;4771449;30;20044;-92
2022/01/05 08:54:28;;;;;;;10.95;2.30;;;4.30;99.90;;;;;;4729443;30;20051;-93
2022/01/05 08:56:54;;;;;;;3.17;1.50;;;4.30;99.90;;;;;;4757288;30;20062;-93
2022/01/05 08:59:25;;;;;;;3.90;1.17;;;5.00;99.90;;;;;;4772165;30;20051;-95
2022/01/05 09:02:17;;;;;;;4.90;1.80;;;4.40;99.90;;;;;;4757046;30;20523;-93
2022/01/05 09:04:42;;;;;;;2.15;1.38;;;4.40;99.90;;;;;;4744653;30;20059;-93
2022/01/05 09:07:14;;;;;;;4.07;1.60;;;4.40;99.90;;;;;;4757837;30;20170;-93
2022/01/05 09:09:47;;;;;;;5.82;1.50;;;5.70;99.90;;;;;;4757230;30;20058;-93
2022/01/05 09:12:23;;;;;;;;;;;;;;;;;;;;;
2022/01/05 09:14:57;;;;;;;7.88;1.50;;;5.20;99.90;;;;;;4787388;30;20090;-93
2022/01/05 09:17:26;;;;;;;3.20;1.38;;;5.40;99.90;;;;;;4742848;30;20077;-94
2022/01/05 09:19:52;;;;;;;7.20;1.27;;;5.30;99.90;;;;;;4743234;30;20495;-92
2022/01/05 09:22:21;;;;;;;3.38;1.08;;;5.30;99.90;;;;;;4757197;30;20522;-93
2022/01/05 09:24:47;;;;;;;5.78;1.50;;;5.20;99.90;;;;;;4756668;30;20507;-87
2022/01/05 09:27:18;;;;;;;4.13;1.15;;;5.10;99.90;;;;;;4756556;30;20571;-90
2022/01/05 09:29:47;;;;;;;3.17;1.23;;;5.00;99.90;;;;;;4773589;30;20058;-85
2022/01/05 09:32:14;;;;;;;2.20;1.20;;;5.80;99.90;;;;;;4755269;30;20055;-86
2022/01/05 09:34:42;;;;;;;6.53;1.38;;;4.90;99.90;;;;;;4771638;30;20043;-86
2022/01/05 09:37:20;;;;;;;8.70;1.85;;;5.00;99.90;;;;;;4729880;30;20082;-85
2022/01/05 09:42:31;;;;;;;10.60;1.63;;;4.80;99.90;;;;;;4772713;30;20130;-86
2022/01/05 09:44:58;;;;;;;2.40;1.70;;;5.70;99.90;;;;;;4773301;30;20047;-85
2022/01/05 09:47:43;;;;;;;2.25;1.27;;;5.20;99.90;;;;;;4758877;30;20063;-86
2022/01/05 09:50:11;;;;;;;7.25;1.92;;;5.40;99.90;;;;;;4758510;30;20043;-86
2022/01/05 09:52:41;;;;;;;3.92;1.33;;;5.60;99.90;;;;;;4773285;30;20047;-86
2022/01/05 09:55:14;;;;;;;8.90;2.05;;;5.90;99.90;;;;;;4773637;30;20084;-86
2022/01/05 09:57:44;;;;;;;9.40;1.90;;;6.80;99.90;;;;;;4743145;30;20047;-86
2022/01/05 10:00:17;;;;;;;3.47;1.83;;;6.00;99.90;;;;;;4787853;30;20051;-86
2022/01/05 10:02:49;;;;;;;6.97;1.40;;;5.90;99.90;;;;;;4768933;30;20099;-85
2022/01/05 10:05:18;;;;;;;7.93;1.83;;;5.20;99.90;;;;;;4759366;30;20062;-87
2022/01/05 10:07:46;;;;;;;6.35;1.73;;;5.80;99.90;;;;;;4743788;30;20091;-90
2022/01/05 10:10:15;;;;;;;3.15;1.33;;;5.90;99.90;;;;;;4750933;30;20043;-89
2022/01/05 10:12:44;;;;;;;6.03;1.85;;;5.80;99.90;;;;;;4772061;30;20070;-90
2022/01/05 10:15:20;;;;;;;14.35;2.40;;;5.90;99.90;;;;;;4758899;30;20130;-89
2022/01/05 10:17:53;;;;;;;4.80;2.20;;;5.90;99.90;;;;;;4744287;30;20079;-89
2022/01/05 10:20:21;;;;;;;8.50;3.00;;;5.90;99.90;;;;;;4756201;30;20063;-89
2022/01/05 10:22:49;;;;;;;8.93;3.22;;;6.00;99.90;;;;;;4758618;30;20103;-90
2022/01/05 10:25:21;;;;;;;11.18;3.30;;;6.00;99.90;;;;;;4758717;30;20046;-91
2022/01/05 10:28:03;;;;;;;11.93;2.80;;;6.00;99.90;;;;;;4763875;30;20087;-87
2022/01/05 10:30:45;;;;;;;8.57;2.38;;;6.00;99.90;;;;;;4757682;30;20047;-87
2022/01/05 10:33:26;;;;;;;10.63;2.35;;;7.00;99.90;;;;;;4757756;30;20059;-89
2022/01/05 10:35:58;;;;;;;9.35;2.50;;;6.30;99.90;;;;;;4786700;30;20047;-89
2022/01/05 10:38:31;;;;;;;6.53;2.60;;;6.50;99.90;;;;;;4772001;30;20047;-89
2022/01/05 10:40:59;;;;;;;11.32;2.13;;;6.80;99.90;;;;;;4736690;30;20104;-89
2022/01/05 10:43:24;;;;;;;8.05;2.22;;;7.00;99.90;;;;;;4787271;30;20044;-89
2022/01/05 10:45:56;;;;;;;6.13;2.33;;;7.20;99.90;;;;;;4756064;30;20130;-89
2022/01/05 10:48:26;;;;;;;9.68;2.92;;;7.40;99.90;;;;;;4786519;30;20043;-90
2022/01/05 10:51:05;;;;;;;5.75;1.92;;;7.60;99.90;;;;;;4768002;30;20119;-89
2022/01/05 10:53:33;;;;;;;8.38;2.47;;;7.40;99.90;;;;;;4757113;30;20066;-90
2022/01/05 10:56:10;;;;;;;3.95;1.70;;;7.90;99.90;;;;;;4764617;30;20079;-88
2022/01/05 10:58:45;;;;;;;8.93;2.38;;;7.90;99.90;;;;;;4756972;30;20053;-91
2022/01/05 11:01:27;;;;;;;11.77;2.55;;;8.10;99.90;;;;;;4758903;30;20511;-87
2022/01/05 11:03:58;;;;;;;5.03;1.95;;;8.20;99.90;;;;;;4777514;30;20061;-88
2022/01/05 11:06:26;;;;;;;5.60;2.17;;;8.10;99.90;;;;;;4773036;30;20051;-87
2022/01/05 11:09:00;;;;;;;5.00;2.08;;;8.00;99.90;;;;;;4757532;30;20044;-88
2022/01/05 11:11:46;;;;;;;8.73;1.95;;;8.00;99.90;;;;;;4756553;30;20075;-88
2022/01/05 11:14:17;;;;;;;2.78;1.63;;;8.20;99.90;;;;;;4755130;30;20059;-88
2022/01/05 11:16:49;;;;;;;11.02;2.03;;;8.50;99.90;;;;;;4757559;30;20055;-88
2022/01/05 11:19:41;;;;;;;9.75;2.28;;;8.60;99.90;;;;;;4772976;30;20130;-85
2022/01/05 11:22:09;;;;;;;5.30;2.42;;;8.90;99.90;;;;;;4755599;30;20063;-86
2022/01/05 11:24:43;;;;;;;3.97;2.25;;;9.10;99.90;;;;;;4757246;30;20059;-86
2022/01/05 11:27:32;;;;;;;8.80;2.15;;;9.20;99.90;;;;;;4768017;30;20074;-86
2022/01/05 11:29:58;;;;;;;9.32;2.60;;;9.10;99.90;;;;;;4770298;30;20059;-86
2022/01/05 11:32:27;;;;;;;3.63;1.77;;;8.60;99.90;;;;;;4772631;30;20083;-86
2022/01/05 11:34:53;;;;;;;9.65;1.85;;;9.10;99.90;;;;;;4770379;30;20055;-87
2022/01/05 11:37:22;;;;;;;5.00;2.42;;;9.10;99.90;;;;;;4786032;30;20114;-86
2022/01/05 11:39:57;;;;;;;2.97;1.77;;;9.20;99.90;;;;;;4770574;30;20452;-87
2022/01/05 11:42:31;;;;;;;4.45;1.80;;;9.90;99.90;;;;;;4774694;30;20055;-87
2022/01/05 11:44:57;;;;;;;6.60;1.55;;;9.10;99.90;;;;;;4785704;30;20054;-86
2022/01/05 11:47:30;;;;;;;4.72;1.77;;;9.00;99.90;;;;;;4772347;30;20051;-88
2022/01/05 11:50:27;;;;;;;5.63;1.75;;;9.10;99.90;;;;;;4755540;30;20192;-87
2022/01/05 11:53:04;;;;;;;4.38;1.73;;;9.30;99.90;;;;;;4757258;30;20476;-86
2022/01/05 11:55:32;;;;;;;9.85;1.75;;;9.30;99.90;;;;;;4769562;30;20513;-84
2022/01/05 11:58:18;;;;;;;2.75;1.20;;;9.40;99.90;;;;;;4754569;30;20087;-85
2022/01/05 12:00:45;;;;;;;5.18;1.40;;;9.60;99.90;;;;;;4771261;30;20066;-86
2022/01/05 12:03:11;;;;;;;5.05;1.73;;;9.60;99.90;;;;;;4756072;30;20178;-86
2022/01/05 12:06:03;;;;;;;10.45;2.53;;;8.80;99.90;;;;;;4753601;30;20497;-85
2022/01/05 12:08:49;;;;;;;4.43;1.75;;;9.40;99.90;;;;;;4771098;30;20122;-91
2022/01/05 12:11:46;;;;;;;3.28;1.25;;;9.10;99.90;;;;;;4785393;30;20055;-87
2022/01/05 12:14:24;;;;;;;3.60;1.98;;;9.00;99.90;;;;;;4756082;30;20051;-91
2022/01/05 12:16:58;;;;;;;10.23;1.75;;;9.10;99.90;;;;;;4778968;30;20062;-87
2022/01/05 12:19:25;;;;;;;5.70;1.70;;;9.10;99.90;;;;;;4770767;30;20047;-87
2022/01/05 12:21:56;;;;;;;5.95;2.08;;;9.00;99.90;;;;;;4755238;30;20055;-87
2022/01/05 12:24:42;;;;;;;5.95;1.80;;;8.80;99.90;;;;;;4785264;29;20523;-87
2022/01/05 12:27:20;;;;;;;3.03;1.30;;;8.70;99.90;;;;;;4754676;30;20039;-87
2022/01/05 12:29:48;;;;;;;3.45;1.52;;;8.50;99.90;;;;;;4749501;30;20419;-88
2022/01/05 12:32:36;;;;;;;2.13;1.00;;;8.50;99.90;;;;;;4770327;30;20040;-88
2022/01/05 12:35:06;;;;;;;4.53;1.60;;;8.80;99.90;;;;;;4747565;30;20055;-88
2022/01/05 12:37:50;;;;;;;7.43;1.65;;;9.00;99.90;;;;;;4770102;30;20082;-87
2022/01/05 12:40:28;;;;;;;5.35;1.25;;;9.20;99.90;;;;;;4755535;30;20120;-90
2022/01/05 12:43:19;;;;;;;;;;;;;;;;;;;;;
2022/01/05 12:46:11;;;;;;;6.18;2.38;;;8.90;99.90;;;;;;4786131;30;20533;-90
2022/01/05 12:48:52;;;;;;;6.35;1.85;;;8.70;99.90;;;;;;4757226;30;20499;-90
2022/01/05 12:51:20;;;;;;;4.43;1.90;;;8.00;99.90;;;;;;4771151;30;20499;-90
2022/01/05 12:54:18;;;;;;;8.00;2.25;;;8.60;99.90;;;;;;4771537;30;20051;-89
2022/01/05 12:57:11;;;;;;;4.88;1.63;;;8.80;99.90;;;;;;4771819;30;20051;-90
2022/01/05 13:00:07;;;;;;;7.40;1.85;;;9.10;99.90;;;;;;4757066;30;20047;-90
2022/01/05 13:02:47;;;;;;;6.00;2.33;;;9.20;99.90;;;;;;4771253;30;20544;-89
2022/01/05 13:05:33;;;;;;;8.75;2.83;;;9.30;99.90;;;;;;4756129;30;20058;-90
2022/01/05 13:08:16;;;;;;;7.47;1.75;;;8.60;99.90;;;;;;4755900;30;20047;-89
2022/01/05 13:11:04;;;;;;;4.65;1.52;;;8.50;99.90;;;;;;4742733;30;20059;-90
2022/01/05 13:13:35;;;;;;;;;;;9.30;99.90;;;;;;4757242;30;20057;-89
2022/01/05 13:16:28;;;;;;;;;;;;;;;;;;;;;
2022/01/05 13:19:10;;;;;;;;;;;;;;;;;;;;;
2022/01/05 13:22:28;;;;;;;3.67;1.73;;;8.20;99.90;;;;;;4771488;30;20131;-89